Time;durP1;ratioP1;P1;durP2;ratioP2;P2;SDS_P1;SDS_P2;PMS_P1;PMS_P2;Temp;Humidity;BMP_temperature;BMP_pressure;BME280_temperature;BME280_humidity;BME280_pressure;Samples;Min_cycle;Max_cycle;Signal;HPM_P1;HPM_P2
2021/09/22 00:01:42;;;;;;;8.57;5.60;;;;;;;10.53;100.00;101690.91;5009858;28;20169;-68
2021/09/22 00:04:26;;;;;;;6.75;5.45;;;;;;;10.55;100.00;101688.97;5009769;28;20049;-68
2021/09/22 00:07:10;;;;;;;8.45;5.63;;;;;;;10.57;100.00;101681.72;4995627;28;20046;-68
2021/09/22 00:09:54;;;;;;;7.50;5.93;;;;;;;10.61;100.00;101680.53;5009496;28;20058;-68
2021/09/22 00:12:38;;;;;;;9.60;6.65;;;;;;;10.62;100.00;101671.56;4995706;28;20451;-67
2021/09/22 00:15:24;;;;;;;10.60;6.07;;;;;;;10.62;100.00;101674.25;5009350;28;20049;-67
2021/09/22 00:18:08;;;;;;;9.60;5.45;;;;;;;10.62;100.00;101668.91;4995407;28;20526;-68
2021/09/22 00:20:51;;;;;;;6.72;5.35;;;;;;;10.59;100.00;101687.81;4996611;28;20053;-68
2021/09/22 00:23:38;;;;;;;8.30;5.60;;;;;;;10.60;100.00;101675.31;5009390;28;20053;-68
2021/09/22 00:26:22;;;;;;;10.88;5.68;;;;;;;10.60;100.00;101681.50;5009081;28;20061;-67
2021/09/22 00:29:09;;;;;;;10.15;6.10;;;;;;;10.60;100.00;101686.84;4995165;28;20045;-67
2021/09/22 00:31:53;;;;;;;12.10;5.80;;;;;;;10.57;100.00;101686.22;4996400;28;20291;-68
2021/09/22 00:34:37;;;;;;;9.00;5.78;;;;;;;10.57;100.00;101683.53;4995561;28;20045;-68
2021/09/22 00:37:22;;;;;;;8.25;5.43;;;;;;;10.53;100.00;101680.25;4994895;28;20104;-68
2021/09/22 00:40:07;;;;;;;10.73;7.00;;;;;;;10.54;100.00;101681.09;5008802;28;20049;-68
2021/09/22 00:42:50;;;;;;;9.65;6.13;;;;;;;10.51;100.00;101675.97;4995226;28;20080;-68
2021/09/22 00:45:37;;;;;;;9.70;5.75;;;;;;;10.51;100.00;101676.84;4995089;28;20049;-67
2021/09/22 00:48:21;;;;;;;8.80;5.97;;;;;;;10.49;100.00;101684.09;4996052;28;20054;-68
2021/09/22 00:51:09;;;;;;;;;;;;;;;10.45;100.00;101679.94;5009242;28;20610;-68
2021/09/22 00:53:56;;;;;;;11.73;5.80;;;;;;;10.45;100.00;101682.59;4994881;28;19992;-67
2021/09/22 00:56:40;;;;;;;9.80;6.05;;;;;;;10.43;100.00;101679.19;5008841;28;20148;-68
2021/09/22 00:59:24;;;;;;;8.48;5.70;;;;;;;10.41;100.00;101680.25;4995574;28;20184;-68
2021/09/22 01:02:08;;;;;;;10.90;5.70;;;;;;;10.38;100.00;101681.34;5008581;28;20110;-67
2021/09/22 01:04:52;;;;;;;;;;;;;;;10.38;100.00;101681.34;4995151;28;20053;-68
2021/09/22 01:07:40;;;;;;;9.40;5.35;;;;;;;10.35;100.00;101689.53;4995925;28;19964;-68
2021/09/22 01:10:24;;;;;;;8.00;5.63;;;;;;;10.33;100.00;101682.63;5007900;28;20147;-68
2021/09/22 01:13:08;;;;;;;7.28;5.32;;;;;;;10.29;100.00;101687.31;5008197;28;20518;-68
2021/09/22 01:15:52;;;;;;;9.75;5.50;;;;;;;10.24;100.00;101688.63;4994556;28;20049;-68
2021/09/22 01:18:37;;;;;;;9.57;5.63;;;;;;;10.19;100.00;101684.56;4994365;28;20088;-67
2021/09/22 01:21:24;;;;;;;;;;;;;;;10.13;100.00;101671.66;5008421;28;20108;-68
2021/09/22 01:24:11;;;;;;;11.63;5.85;;;;;;;10.10;100.00;101670.06;4994381;28;19956;-68
2021/09/22 01:26:55;;;;;;;8.30;5.50;;;;;;;10.09;100.00;101675.50;5007600;28;20064;-67
2021/09/22 01:29:39;;;;;;;8.25;5.55;;;;;;;10.08;100.00;101677.31;5008200;28;20056;-66
2021/09/22 01:32:23;;;;;;;7.45;5.82;;;;;;;10.08;100.00;101685.31;4994274;28;20073;-68
2021/09/22 01:35:07;;;;;;;7.78;5.40;;;;;;;10.07;100.00;101696.06;5007988;28;20180;-68
2021/09/22 01:37:51;;;;;;;7.30;5.70;;;;;;;10.04;100.00;101690.94;4994178;28;20049;-68
2021/09/22 01:40:36;;;;;;;9.35;5.25;;;;;;;10.01;100.00;101691.13;5007737;28;20096;-68
2021/09/22 01:43:20;;;;;;;11.25;6.18;;;;;;;9.96;100.00;101688.78;4994009;28;20133;-67
2021/09/22 01:46:05;;;;;;;11.65;5.82;;;;;;;9.90;100.00;101685.69;5007609;28;20113;-68
2021/09/22 01:48:49;;;;;;;10.50;5.75;;;;;;;9.85;100.00;101695.81;5007836;28;20041;-68
2021/09/22 01:51:33;;;;;;;10.02;6.10;;;;;;;9.83;100.00;101689.75;4994622;28;20529;-67
2021/09/22 01:54:17;;;;;;;9.15;5.63;;;;;;;9.82;100.00;101688.03;4994804;28;20115;-67
2021/09/22 01:57:02;;;;;;;9.70;5.97;;;;;;;9.83;100.00;101692.41;5007397;28;20103;-67
2021/09/22 01:59:46;;;;;;;8.00;5.43;;;;;;;9.81;100.00;101689.00;4993722;28;20097;-68
2021/09/22 02:02:31;;;;;;;10.75;5.78;;;;;;;9.80;100.00;101688.13;4993712;28;20057;-68
2021/09/22 02:05:15;;;;;;;7.63;5.95;;;;;;;9.82;100.00;101690.69;4994659;28;20498;-67
2021/09/22 02:07:59;;;;;;;16.88;6.38;;;;;;;9.83;100.00;101687.06;4993313;28;20511;-68
2021/09/22 02:10:43;;;;;;;10.18;6.30;;;;;;;9.84;100.00;101684.31;5007295;28;20116;-68
2021/09/22 02:13:27;;;;;;;9.10;6.45;;;;;;;9.83;100.00;101685.28;4994776;28;20068;-67
2021/09/22 02:16:11;;;;;;;11.00;5.95;;;;;;;9.85;100.00;101686.03;4994422;28;20057;-68
2021/09/22 02:18:54;;;;;;;12.02;6.45;;;;;;;9.83;100.00;101677.28;5006825;28;20054;-68
2021/09/22 02:21:39;;;;;;;12.43;5.78;;;;;;;9.86;100.00;101685.06;4993430;28;20053;-68
2021/09/22 02:24:23;;;;;;;9.38;6.22;;;;;;;9.84;100.00;101679.00;5007454;28;20053;-67
2021/09/22 02:27:07;;;;;;;7.85;5.82;;;;;;;9.82;100.00;101680.03;5007170;28;20049;-68
2021/09/22 02:29:51;;;;;;;8.13;5.75;;;;;;;9.80;100.00;101666.81;5007165;28;20411;-67
2021/09/22 02:32:36;;;;;;;8.07;6.20;;;;;;;9.78;100.00;101667.91;5007182;28;20049;-68
2021/09/22 02:35:20;;;;;;;9.43;6.50;;;;;;;9.77;100.00;101675.03;5007435;28;20411;-68
2021/09/22 02:38:04;;;;;;;8.40;6.28;;;;;;;9.77;100.00;101672.38;4992817;28;20112;-67
2021/09/22 02:40:48;;;;;;;13.60;7.18;;;;;;;9.79;100.00;101670.44;5007051;28;20049;-68
2021/09/22 02:43:32;;;;;;;8.13;5.88;;;;;;;9.81;100.00;101667.69;5006739;28;20069;-68
2021/09/22 02:46:16;;;;;;;11.60;5.90;;;;;;;9.80;100.00;101666.00;4992899;28;20100;-68
2021/09/22 02:49:00;;;;;;;8.77;5.95;;;;;;;9.80;100.00;101656.16;4993146;28;20124;-68
2021/09/22 02:51:44;;;;;;;8.25;6.07;;;;;;;9.79;100.00;101648.31;4993053;28;20057;-67
2021/09/22 02:54:28;;;;;;;10.77;6.03;;;;;;;9.77;100.00;101648.41;4992818;28;20057;-67
2021/09/22 02:57:12;;;;;;;12.80;6.45;;;;;;;9.77;100.00;101650.22;4992992;28;20101;-68
2021/09/22 02:59:56;;;;;;;8.95;6.15;;;;;;;9.75;100.00;101646.78;4993017;28;20145;-67
2021/09/22 03:02:41;;;;;;;7.82;5.60;;;;;;;9.74;100.00;101640.63;5006731;28;20096;-68
2021/09/22 03:05:25;;;;;;;9.25;6.50;;;;;;;9.73;100.00;101648.72;5006376;28;20053;-68
2021/09/22 03:08:10;;;;;;;9.95;6.25;;;;;;;9.69;100.00;101648.06;5007011;28;20089;-68
2021/09/22 03:10:54;;;;;;;9.85;6.63;;;;;;;9.68;100.00;101654.34;4993143;28;20196;-67
2021/09/22 03:13:39;;;;;;;13.73;6.72;;;;;;;9.66;100.00;101660.72;5006746;28;20125;-68
2021/09/22 03:16:23;;;;;;;8.57;6.13;;;;;;;9.64;100.00;101660.88;5006476;28;20069;-67
2021/09/22 03:19:07;;;;;;;8.27;6.10;;;;;;;9.62;100.00;101661.91;5006702;28;20466;-68
2021/09/22 03:21:51;;;;;;;9.88;6.70;;;;;;;9.57;100.00;101664.88;5006435;28;20088;-68
2021/09/22 03:24:35;;;;;;;8.40;6.30;;;;;;;9.56;100.00;101665.84;4992546;28;20125;-68
2021/09/22 03:27:18;;;;;;;9.95;5.85;;;;;;;9.53;100.00;101667.84;5006577;28;20049;-68
2021/09/22 03:30:04;;;;;;;10.00;6.60;;;;;;;9.49;100.00;101667.22;5008305;28;20079;-68
2021/09/22 03:32:48;;;;;;;9.95;6.05;;;;;;;9.48;100.00;101670.00;4996531;28;20053;-67
2021/09/22 03:35:32;;;;;;;9.02;5.88;;;;;;;9.44;100.00;101666.69;5010419;28;20049;-65
2021/09/22 03:38:17;;;;;;;10.05;6.20;;;;;;;9.41;100.00;101655.38;5010036;28;20108;-67
2021/09/22 03:41:01;;;;;;;9.80;6.90;;;;;;;9.39;100.00;101660.81;4997596;28;20122;-67
2021/09/22 03:43:47;;;;;;;13.65;6.05;;;;;;;9.40;100.00;101661.66;4996503;28;20072;-68
2021/09/22 03:46:34;;;;;;;10.75;5.88;;;;;;;9.39;100.00;101666.13;5010085;28;20053;-68
2021/09/22 03:49:18;;;;;;;10.25;6.10;;;;;;;9.38;100.00;101676.91;5009730;28;20104;-68
2021/09/22 03:52:03;;;;;;;12.88;6.22;;;;;;;9.37;100.00;101673.38;5010037;28;20108;-68
2021/09/22 03:54:47;;;;;;;10.02;6.75;;;;;;;9.36;100.00;101673.50;5009998;28;20530;-68
2021/09/22 03:57:31;;;;;;;10.40;5.90;;;;;;;9.34;100.00;101676.25;5009659;28;20050;-67
2021/09/22 04:00:15;;;;;;;11.00;6.95;;;;;;;9.33;100.00;101671.00;4996027;28;20052;-68
2021/09/22 04:02:59;;;;;;;9.13;6.10;;;;;;;9.30;100.00;101668.56;5010122;28;20045;-68
2021/09/22 04:05:43;;;;;;;14.20;6.57;;;;;;;9.28;100.00;101673.97;4996597;28;20077;-68
2021/09/22 04:08:27;;;;;;;16.80;7.30;;;;;;;9.26;100.00;101675.06;4995962;28;20097;-68
2021/09/22 04:11:10;;;;;;;13.82;6.95;;;;;;;9.25;100.00;101678.66;4995952;28;20189;-68
2021/09/22 04:13:54;;;;;;;8.80;6.47;;;;;;;9.23;100.00;101675.25;5009797;28;20077;-67
2021/09/22 04:16:38;;;;;;;9.38;6.63;;;;;;;9.22;100.00;101678.84;5009756;28;20049;-68
2021/09/22 04:19:22;;;;;;;9.98;6.15;;;;;;;9.19;100.00;101676.41;5009576;28;20118;-68
2021/09/22 04:22:06;;;;;;;9.52;6.60;;;;;;;9.20;100.00;101681.63;4995927;28;20056;-68
2021/09/22 04:24:50;;;;;;;11.85;7.15;;;;;;;9.20;100.00;101680.78;5009718;28;20089;-67
2021/09/22 04:27:34;;;;;;;10.95;6.75;;;;;;;9.18;100.00;101682.69;5009345;28;20077;-68
2021/09/22 04:30:18;;;;;;;11.25;7.00;;;;;;;9.18;100.00;101688.00;4996620;28;20053;-68
2021/09/22 04:33:02;;;;;;;9.15;6.60;;;;;;;9.15;100.00;101688.22;4995183;28;20053;-68
2021/09/22 04:35:47;;;;;;;9.30;6.60;;;;;;;9.14;100.00;101681.16;4995566;28;20088;-69
2021/09/22 04:38:30;;;;;;;10.65;6.40;;;;;;;9.12;100.00;101680.41;4996323;28;20498;-68
2021/09/22 04:41:15;;;;;;;10.80;7.38;;;;;;;9.12;100.00;101680.41;5008590;28;20057;-68
2021/09/22 04:44:01;;;;;;;12.52;6.90;;;;;;;9.10;100.00;101680.53;5009161;28;20133;-68
2021/09/22 04:46:45;;;;;;;10.43;7.15;;;;;;;9.11;100.00;101692.00;5035163;22;20045;-70
2021/09/22 04:49:30;;;;;;;11.70;8.27;;;;;;;9.11;100.00;101681.38;5014467;28;20053;-70
2021/09/22 04:52:14;;;;;;;9.65;6.78;;;;;;;9.09;100.00;101683.28;5014647;28;20072;-70
2021/09/22 04:54:58;;;;;;;11.75;6.93;;;;;;;9.08;100.00;101684.25;5000440;28;20069;-70
2021/09/22 04:57:42;;;;;;;14.25;8.00;;;;;;;9.07;100.00;101678.06;5014230;28;20056;-70
2021/09/22 05:00:26;;;;;;;14.73;7.93;;;;;;;9.06;100.00;101672.84;5014186;28;20422;-70
2021/09/22 05:03:16;;;;;;;13.00;7.80;;;;;;;9.03;100.00;101671.25;5014419;28;20120;-70
2021/09/22 05:06:01;;;;;;;10.65;7.47;;;;;;;9.04;100.00;101680.06;5015064;28;20119;-70
2021/09/22 05:08:44;;;;;;;14.55;7.78;;;;;;;9.02;100.00;101681.97;5014296;28;20049;-70
2021/09/22 05:11:28;;;;;;;10.27;7.72;;;;;;;9.02;100.00;101682.84;5014230;28;20104;-69
2021/09/22 05:14:12;;;;;;;12.57;8.02;;;;;;;9.04;100.00;101683.59;5015288;28;20056;-69
2021/09/22 05:16:56;;;;;;;10.93;7.72;;;;;;;9.02;100.00;101688.16;5013836;28;20099;-70
2021/09/22 05:19:40;;;;;;;13.15;8.10;;;;;;;9.05;100.00;101687.13;5015358;28;20080;-70
2021/09/22 05:22:24;;;;;;;11.93;7.88;;;;;;;9.00;100.00;101694.53;5014075;28;20080;-70
2021/09/22 05:25:08;;;;;;;12.15;7.72;;;;;;;8.99;100.00;101700.81;5014259;28;20072;-71
2021/09/22 05:27:52;;;;;;;13.35;7.43;;;;;;;9.00;100.00;101705.16;5013913;28;20107;-70
2021/09/22 05:30:36;;;;;;;13.77;7.97;;;;;;;8.98;100.00;101699.94;5015233;28;20048;-70
2021/09/22 05:33:20;;;;;;;14.27;7.30;;;;;;;9.00;100.00;101694.53;4999710;28;20053;-70
2021/09/22 05:36:04;;;;;;;10.63;8.05;;;;;;;9.01;100.00;101698.91;5000371;28;20486;-70
2021/09/22 05:38:48;;;;;;;14.63;8.20;;;;;;;9.04;100.00;101701.34;5013781;28;20510;-70
2021/09/22 05:41:32;;;;;;;13.52;8.55;;;;;;;9.06;100.00;101704.78;5014046;28;20044;-70
2021/09/22 05:44:16;;;;;;;15.02;8.25;;;;;;;9.13;100.00;101698.97;4999517;28;20128;-70
2021/09/22 05:47:01;;;;;;;13.02;8.38;;;;;;;9.17;100.00;101699.63;5013101;28;20052;-70
2021/09/22 05:49:45;;;;;;;15.75;8.43;;;;;;;9.18;100.00;101693.34;5013556;28;20045;-70
2021/09/22 05:52:29;;;;;;;;;;;;;;;9.26;100.00;101697.19;4999668;28;20076;-70
2021/09/22 05:55:13;;;;;;;17.90;8.60;;;;;;;9.37;100.00;101694.66;5013246;28;19921;-70
2021/09/22 05:57:57;;;;;;;17.13;8.82;;;;;;;9.45;100.00;101702.13;4999105;28;20141;-68
2021/09/22 06:00:42;;;;;;;13.77;9.75;;;;;;;9.54;100.00;101701.50;5014364;28;20096;-69
2021/09/22 06:03:26;;;;;;;12.43;8.48;;;;;;;9.60;100.00;101693.13;5013535;28;20048;-70
2021/09/22 06:06:10;;;;;;;14.93;8.35;;;;;;;9.70;100.00;101696.88;5013277;28;20502;-70
2021/09/22 06:08:54;;;;;;;16.05;8.75;;;;;;;9.81;100.00;101689.84;5013255;28;20044;-70
2021/09/22 06:11:37;;;;;;;14.95;8.18;;;;;;;9.93;100.00;101696.13;5012890;28;20099;-70
2021/09/22 06:14:21;;;;;;;12.88;7.80;;;;;;;9.99;100.00;101699.22;5013381;28;20049;-70
2021/09/22 06:17:05;;;;;;;11.73;8.68;;;;;;;10.01;100.00;101696.47;5013678;28;20056;-70
2021/09/22 06:19:49;;;;;;;12.02;8.27;;;;;;;10.06;100.00;101695.22;5013123;28;20125;-70
2021/09/22 06:22:33;;;;;;;13.23;7.90;;;;;;;10.16;100.00;101695.41;5014033;28;20048;-70
2021/09/22 06:25:17;;;;;;;11.40;8.50;;;;;;;10.23;100.00;101696.72;5014061;28;20184;-70
2021/09/22 06:28:01;;;;;;;13.85;7.80;;;;;;;10.33;100.00;101695.97;5013589;28;20056;-70
2021/09/22 06:30:51;;;;;;;12.57;8.38;;;;;;;10.40;100.00;101698.09;5013625;28;20104;-70
2021/09/22 06:33:36;;;;;;;9.75;7.93;;;;;;;10.49;100.00;101700.09;5012616;28;20104;-70
2021/09/22 06:36:19;;;;;;;13.30;8.30;;;;;;;10.61;100.00;101704.53;5013003;28;20096;-70
2021/09/22 06:39:05;;;;;;;15.10;8.93;;;;;;;10.69;100.00;101712.00;5012747;28;20057;-70
2021/09/22 06:41:52;;;;;;;20.40;8.85;;;;;;;10.77;100.00;101704.28;5012739;28;20081;-70
2021/09/22 06:44:37;;;;;;;16.23;8.88;;;;;;;10.83;100.00;101704.69;5012801;28;20061;-70
2021/09/22 06:47:21;;;;;;;15.32;8.63;;;;;;;10.97;100.00;101707.19;5013256;28;20475;-70
2021/09/22 06:50:08;;;;;;;15.98;9.27;;;;;;;11.04;100.00;101712.97;5012943;28;20044;-69
2021/09/22 06:52:52;;;;;;;12.90;9.43;;;;;;;11.11;100.00;101714.19;5012400;28;20135;-70
2021/09/22 06:55:36;;;;;;;18.25;10.35;;;;;;;11.19;100.00;101707.34;5013379;28;20115;-70
2021/09/22 06:58:20;;;;;;;13.65;10.25;;;;;;;11.35;100.00;101718.59;5013587;28;20407;-70
2021/09/22 07:01:05;;;;;;;15.25;9.93;;;;;;;11.48;100.00;101718.53;5013546;28;20407;-70
2021/09/22 07:03:48;;;;;;;16.85;9.88;;;;;;;11.62;100.00;101716.56;5013888;28;20044;-69
2021/09/22 07:06:32;;;;;;;13.40;9.50;;;;;;;11.73;100.00;101718.41;5016571;28;20413;-70
2021/09/22 07:09:16;;;;;;;15.50;9.60;;;;;;;11.76;100.00;101724.34;5016679;28;20096;-70
2021/09/22 07:12:00;;;;;;;14.77;9.43;;;;;;;11.91;99.35;101730.34;5016582;28;20080;-70
2021/09/22 07:14:44;;;;;;;14.63;10.15;;;;;;;11.99;98.61;101736.81;5016166;28;20132;-70
2021/09/22 07:17:28;;;;;;;13.63;10.02;;;;;;;12.13;97.39;101739.28;5016278;28;20568;-70
2021/09/22 07:20:13;;;;;;;14.15;10.15;;;;;;;12.19;96.29;101744.13;5002757;28;20145;-70
2021/09/22 07:22:57;;;;;;;14.27;10.00;;;;;;;12.26;96.93;101733.81;5017324;28;20067;-70
2021/09/22 07:25:42;;;;;;;14.60;10.40;;;;;;;12.33;96.44;101729.69;5016201;28;20091;-70
2021/09/22 07:28:26;;;;;;;14.55;10.48;;;;;;;12.44;95.58;101733.25;5016895;28;20161;-70
2021/09/22 07:31:13;;;;;;;15.02;10.15;;;;;;;12.48;95.44;101740.03;5017169;28;20184;-70
2021/09/22 07:33:57;;;;;;;14.75;10.10;;;;;;;12.52;94.54;101740.66;5016006;28;20119;-70
2021/09/22 07:36:41;;;;;;;17.42;10.70;;;;;;;12.53;94.92;101732.53;5016980;28;20045;-70
2021/09/22 07:39:24;;;;;;;15.65;10.52;;;;;;;12.64;94.35;101743.22;5016149;28;20132;-70
2021/09/22 07:42:12;;;;;;;15.70;9.82;;;;;;;12.68;93.75;101733.13;5016849;28;20052;-71
2021/09/22 07:44:56;;;;;;;17.90;10.65;;;;;;;12.80;91.56;101743.69;5015832;28;20045;-68
2021/09/22 07:47:40;;;;;;;15.68;10.35;;;;;;;12.88;91.51;101739.44;5015287;28;20048;-70
2021/09/22 07:50:25;;;;;;;12.93;10.05;;;;;;;12.88;89.68;101741.25;5015700;28;20057;-70
2021/09/22 07:53:09;;;;;;;14.20;10.05;;;;;;;13.04;89.52;101731.88;5001603;28;20088;-70
2021/09/22 07:55:52;;;;;;;33.60;17.92;;;;;;;13.22;88.82;101732.19;5001802;28;20053;-70
2021/09/22 07:58:36;;;;;;;14.95;10.57;;;;;;;13.27;86.58;101727.34;5001393;28;20103;-69
2021/09/22 08:01:20;;;;;;;15.60;10.32;;;;;;;13.40;86.30;101730.69;5015370;28;20049;-70
2021/09/22 08:04:04;;;;;;;14.18;10.40;;;;;;;13.46;85.44;101740.91;5015462;28;20056;-69
2021/09/22 08:06:48;;;;;;;12.02;9.80;;;;;;;13.55;84.50;101734.78;5016075;28;20053;-68
2021/09/22 08:09:33;;;;;;;15.00;9.90;;;;;;;13.65;83.64;101733.88;5016289;28;20053;-69
2021/09/22 08:12:16;;;;;;;15.40;10.73;;;;;;;13.74;81.50;101734.91;5016191;28;20141;-69
2021/09/22 08:15:00;;;;;;;12.63;9.85;;;;;;;13.79;81.50;101730.03;5000985;28;20053;-69
2021/09/22 08:17:44;;;;;;;16.88;11.55;;;;;;;13.90;80.55;101736.22;5015045;28;20053;-69
2021/09/22 08:20:28;;;;;;;16.25;10.98;;;;;;;13.99;80.65;101739.91;5015894;28;20080;-69
2021/09/22 08:23:12;;;;;;;21.75;13.75;;;;;;;14.08;80.08;101742.66;5015185;28;20106;-69
2021/09/22 08:25:57;;;;;;;15.73;10.43;;;;;;;14.28;79.36;101741.00;5001321;28;20461;-69
2021/09/22 08:28:41;;;;;;;13.50;10.80;;;;;;;14.47;79.49;101741.09;5015839;28;20107;-69
2021/09/22 08:31:24;;;;;;;14.70;10.82;;;;;;;14.59;79.33;101734.66;5014764;28;20431;-69
2021/09/22 08:34:08;;;;;;;16.67;11.68;;;;;;;14.67;77.58;101733.00;5015000;28;20107;-70
2021/09/22 08:36:52;;;;;;;14.70;11.52;;;;;;;14.80;77.14;101738.13;5015610;28;20052;-70
2021/09/22 08:39:37;;;;;;;15.52;11.43;;;;;;;14.92;74.62;101742.41;5015884;28;20087;-68
2021/09/22 08:42:21;;;;;;;14.75;11.35;;;;;;;15.14;72.51;101744.88;5014821;28;20130;-70
2021/09/22 08:45:06;;;;;;;17.67;11.23;;;;;;;15.35;72.58;101741.13;5000702;28;20048;-70
2021/09/22 08:47:49;;;;;;;13.55;10.70;;;;;;;15.61;72.24;101747.66;5014418;28;20100;-70
2021/09/22 08:50:33;;;;;;;22.17;12.15;;;;;;;15.92;70.50;101758.13;5014959;28;20457;-70
2021/09/22 08:53:17;;;;;;;15.07;11.60;;;;;;;16.14;68.90;101756.97;5014487;28;20434;-70
2021/09/22 08:56:02;;;;;;;16.15;11.32;;;;;;;16.41;67.99;101760.66;5014784;28;20053;-70
2021/09/22 08:58:46;;;;;;;15.73;10.30;;;;;;;16.67;67.75;101753.59;5015568;28;20169;-69
2021/09/22 09:01:30;;;;;;;13.88;9.70;;;;;;;16.85;66.95;101757.22;5014541;28;20057;-69
2021/09/22 09:04:19;;;;;;;12.20;10.35;;;;;;;17.19;66.28;101747.50;5014209;28;20056;-69
2021/09/22 09:07:03;;;;;;;14.73;10.48;;;;;;;17.45;62.57;101747.66;5014295;28;20472;-70
2021/09/22 09:09:47;;;;;;;13.73;9.98;;;;;;;17.65;61.68;101744.69;5015260;28;20107;-70
2021/09/22 09:12:31;;;;;;;13.43;10.75;;;;;;;17.80;59.98;101753.91;5013993;28;20048;-70
2021/09/22 09:15:15;;;;;;;15.38;10.15;;;;;;;18.03;58.53;101744.31;5000154;28;20104;-70
2021/09/22 09:18:01;;;;;;;11.85;9.10;;;;;;;18.45;58.30;101739.97;4999965;28;20052;-70
2021/09/22 09:20:47;;;;;;;14.52;10.52;;;;;;;18.96;57.95;101745.28;5000488;28;20048;-70
2021/09/22 09:23:31;;;;;;;17.92;9.70;;;;;;;19.40;54.30;101744.94;5014806;28;20419;-70
2021/09/22 09:26:17;;;;;;;11.43;9.43;;;;;;;20.11;52.06;101743.34;5014822;28;20052;-70
2021/09/22 09:29:00;;;;;;;12.30;8.85;;;;;;;21.17;49.20;101725.63;5013104;28;20490;-70
2021/09/22 09:31:44;;;;;;;11.38;8.95;;;;;;;23.18;44.79;101724.66;5014902;28;20045;-69
2021/09/22 09:34:28;;;;;;;10.95;8.75;;;;;;;25.53;39.55;101723.59;5013920;28;20076;-70
2021/09/22 09:37:14;;;;;;;;;;;;;;;26.97;35.80;101722.53;5014081;28;20052;-70
2021/09/22 09:40:27;;;;;;;8.60;7.68;;;;;;;29.63;32.01;101715.56;5013773;28;19920;-70
2021/09/22 09:43:11;;;;;;;11.20;8.50;;;;;;;31.31;29.25;101717.22;5013674;28;20453;-69
2021/09/22 09:45:56;;;;;;;9.27;7.90;;;;;;;32.47;27.17;101715.47;5014471;28;20096;-70
2021/09/22 09:48:39;;;;;;;10.15;8.40;;;;;;;33.19;25.75;101717.03;5014142;28;20482;-70
2021/09/22 09:51:31;;;;;;;9.35;7.53;;;;;;;34.33;24.07;101713.81;5014546;28;20143;-70
2021/09/22 09:54:24;;;;;;;10.38;7.57;;;;;;;34.79;24.01;101713.06;5013327;28;20048;-70
2021/09/22 09:57:11;;;;;;;8.50;7.60;;;;;;;35.14;23.13;101710.44;5013296;28;20117;-70
2021/09/22 09:59:55;;;;;;;13.25;7.57;;;;;;;33.98;23.80;101700.50;5013418;28;20565;-69
2021/09/22 10:02:39;;;;;;;9.63;7.03;;;;;;;34.60;23.31;101704.34;5014095;28;20100;-70
2021/09/22 10:05:23;;;;;;;9.52;7.45;;;;;;;35.55;22.57;101693.69;5014345;28;20060;-68
2021/09/22 10:08:09;;;;;;;7.18;6.47;;;;;;;35.87;21.70;101697.09;5012925;28;20140;-70
2021/09/22 10:10:57;;;;;;;7.93;6.88;;;;;;;35.36;22.21;101687.00;5013997;28;20095;-70
2021/09/22 10:13:40;;;;;;;8.48;6.25;;;;;;;36.26;21.17;101681.56;4999671;28;20107;-70
2021/09/22 10:16:24;;;;;;;7.07;6.38;;;;;;;35.50;21.72;101676.22;4999191;28;20124;-70
2021/09/22 10:19:09;;;;;;;11.30;6.32;;;;;;;35.49;21.15;101669.81;5012722;28;20104;-70
2021/09/22 10:21:53;;;;;;;7.38;5.95;;;;;;;36.45;21.12;101674.31;5014314;28;20517;-70
2021/09/22 10:24:37;;;;;;;7.18;6.22;;;;;;;36.77;20.41;101660.91;5013018;28;20144;-70
2021/09/22 10:27:23;;;;;;;7.20;5.45;;;;;;;36.49;19.86;101661.50;5013055;28;20192;-69
2021/09/22 10:30:08;;;;;;;10.27;6.20;;;;;;;35.75;20.39;101665.16;5012579;28;20048;-70
2021/09/22 10:32:52;;;;;;;6.65;5.97;;;;;;;36.53;20.38;101670.94;5013658;28;20045;-70
2021/09/22 10:35:40;;;;;;;6.82;6.13;;;;;;;36.02;20.64;101658.22;5014151;28;20511;-70
2021/09/22 10:38:27;;;;;;;7.03;5.53;;;;;;;36.96;20.19;101659.16;5012228;28;20084;-70
2021/09/22 10:41:27;;;;;;;6.72;5.80;;;;;;;37.12;19.94;101655.19;5013033;28;20056;-70
2021/09/22 10:44:35;;;;;;;6.60;5.47;;;;;;;37.33;19.73;101648.41;5012761;28;20052;-70
2021/09/22 10:47:24;;;;;;;6.15;5.55;;;;;;;36.25;20.25;101652.13;5012359;28;20045;-70
2021/09/22 10:50:13;;;;;;;6.10;5.50;;;;;;;37.59;19.54;101641.59;5118544;22;20073;-68
2021/09/22 10:52:57;;;;;;;6.28;5.68;;;;;;;37.94;18.96;101644.09;5012393;28;20053;-68
2021/09/22 10:56:03;;;;;;;5.43;4.70;;;;;;;38.76;17.96;101636.28;5012482;28;20573;-68
2021/09/22 10:58:50;;;;;;;6.18;5.32;;;;;;;39.33;17.92;101635.25;5026330;28;20525;-68
2021/09/22 11:01:48;;;;;;;6.03;5.20;;;;;;;39.56;17.27;101626.81;5012534;28;20402;-68
2021/09/22 11:05:13;;;;;;;5.45;5.03;;;;;;;37.48;18.90;101623.31;4998553;28;20049;-67
2021/09/22 11:08:03;;;;;;;7.68;5.10;;;;;;;37.89;18.62;101619.06;4939590;29;20045;-68
2021/09/22 11:10:54;;;;;;;8.27;5.70;;;;;;;38.33;18.42;101623.38;4952916;29;20082;-68
2021/09/22 11:13:38;;;;;;;5.95;4.70;;;;;;;38.35;18.51;101618.34;5007392;28;20107;-68
2021/09/22 11:16:23;;;;;;;5.00;4.60;;;;;;;38.93;18.38;101621.88;5012377;28;20088;-68
2021/09/22 11:19:08;;;;;;;5.65;5.05;;;;;;;38.82;17.85;101612.78;4998526;28;20057;-68
2021/09/22 11:21:53;;;;;;;5.43;4.93;;;;;;;39.29;17.63;101601.56;5012202;28;20508;-68
2021/09/22 11:24:37;;;;;;;5.22;4.78;;;;;;;40.20;16.99;101602.50;5013282;28;20514;-68
2021/09/22 11:27:23;;;;;;;5.93;4.15;;;;;;;40.57;15.80;101602.34;5012276;28;20049;-68
2021/09/22 11:30:07;;;;;;;4.45;4.05;;;;;;;39.81;16.90;101599.31;5011810;28;20100;-68
2021/09/22 11:32:51;;;;;;;5.78;3.97;;;;;;;40.01;16.79;101593.34;5013222;28;20410;-68
2021/09/22 11:35:35;;;;;;;5.72;4.00;;;;;;;39.83;17.33;101596.19;5012176;28;20112;-67
2021/09/22 11:38:19;;;;;;;4.97;3.90;;;;;;;39.14;17.86;101586.97;4998242;28;20076;-69
2021/09/22 11:41:04;;;;;;;5.25;3.95;;;;;;;39.17;17.50;101591.94;5012154;28;20076;-68
2021/09/22 11:43:48;;;;;;;6.50;4.85;;;;;;;38.72;17.84;101589.78;4997992;28;20100;-66
2021/09/22 11:46:33;;;;;;;4.75;3.60;;;;;;;38.87;17.58;101586.78;5012393;28;20045;-68
2021/09/22 11:49:17;;;;;;;4.80;4.00;;;;;;;38.80;17.83;101581.59;4997987;28;20108;-67
2021/09/22 11:52:14;;;;;;;4.80;3.50;;;;;;;39.24;17.46;101573.72;5014769;28;20049;-68
2021/09/22 11:55:06;;;;;;;5.22;3.47;;;;;;;39.39;16.57;101567.91;5015439;28;20095;-65
2021/09/22 11:57:50;;;;;;;4.00;3.10;;;;;;;38.36;18.09;101569.03;5015315;28;20052;-67
2021/09/22 12:00:35;;;;;;;3.75;3.45;;;;;;;38.25;18.36;101568.31;5015284;28;20049;-67
2021/09/22 12:03:22;;;;;;;4.40;3.20;;;;;;;37.57;18.35;101552.81;5001712;28;20049;-68
2021/09/22 12:06:18;;;;;;;3.42;3.03;;;;;;;38.58;17.89;101558.16;5015219;28;20048;-68
2021/09/22 12:09:04;;;;;;;3.65;3.28;;;;;;;39.18;17.57;101557.31;5002142;28;20049;-68
2021/09/22 12:12:07;;;;;;;2.72;2.53;;;;;;;38.56;17.84;101557.63;5015401;28;20088;-68
2021/09/22 12:14:56;;;;;;;3.72;2.92;;;;;;;38.24;18.02;101552.72;5001463;28;20104;-68
2021/09/22 12:17:41;;;;;;;3.13;2.90;;;;;;;37.33;18.84;101548.25;5015185;28;20067;-68
2021/09/22 12:20:25;;;;;;;4.05;3.35;;;;;;;36.36;20.24;101539.91;5015078;28;20049;-68
2021/09/22 12:23:10;;;;;;;5.35;3.03;;;;;;;36.23;19.87;101540.47;5015222;28;20052;-67
2021/09/22 12:26:13;;;;;;;7.38;3.40;;;;;;;36.42;20.45;101531.25;5015128;28;20049;-68
2021/09/22 12:29:11;;;;;;;4.65;4.00;;;;;;;35.79;20.97;101530.31;5015731;28;20124;-68
2021/09/22 12:32:05;;;;;;;4.32;3.42;;;;;;;36.08;20.55;101523.84;5014820;28;20044;-68
2021/09/22 12:34:56;;;;;;;4.60;3.70;;;;;;;35.69;20.87;101527.53;5000930;28;20509;-67
2021/09/22 12:37:41;;;;;;;4.43;3.45;;;;;;;35.12;21.39;101519.44;5014190;28;20419;-67
2021/09/22 12:40:45;;;;;;;3.75;3.20;;;;;;;34.64;22.14;101514.31;5000791;28;20084;-67
2021/09/22 12:43:30;;;;;;;4.07;3.25;;;;;;;34.81;22.42;101512.19;5001109;28;20088;-68